createdAt,value
2022-09-01T00:00:03.458Z,99.90
2022-09-01T00:02:34.700Z,99.90
2022-09-01T00:05:04.624Z,99.90
2022-09-01T00:07:32.048Z,99.90
2022-09-01T00:10:00.289Z,99.90
2022-09-01T00:12:28.094Z,99.90
2022-09-01T00:14:55.384Z,99.90
2022-09-01T00:17:22.304Z,99.90
2022-09-01T00:19:50.310Z,99.90
2022-09-01T00:22:17.141Z,99.90
2022-09-01T00:24:45.923Z,99.90
2022-09-01T00:27:12.912Z,99.90
2022-09-01T00:29:43.272Z,99.90
2022-09-01T00:32:11.652Z,99.90
2022-09-01T00:34:38.686Z,99.90
2022-09-01T00:37:05.507Z,99.90
2022-09-01T00:39:32.387Z,99.90
2022-09-01T00:41:59.619Z,99.90
2022-09-01T00:44:29.501Z,99.90
2022-09-01T00:46:58.074Z,99.90
2022-09-01T00:49:41.675Z,99.90
2022-09-01T00:52:14.145Z,99.90
2022-09-01T00:54:45.655Z,99.90
2022-09-01T00:57:14.362Z,99.90
2022-09-01T00:59:50.116Z,99.90
2022-09-01T01:02:17.210Z,99.90
2022-09-01T01:04:46.916Z,99.90
2022-09-01T01:07:15.677Z,99.90
2022-09-01T01:09:48.678Z,99.90
2022-09-01T01:12:18.666Z,99.90
2022-09-01T01:14:50.977Z,99.90
2022-09-01T01:17:21.687Z,99.90
2022-09-01T01:20:15.318Z,99.90
2022-09-01T01:23:02.674Z,99.90
2022-09-01T01:25:53.409Z,99.90
2022-09-01T01:28:32.426Z,99.90
2022-09-01T01:31:11.912Z,99.90
2022-09-01T01:33:51.558Z,99.90
2022-09-01T01:36:33.549Z,99.90
2022-09-01T01:39:03.852Z,99.90
2022-09-01T01:41:35.535Z,99.90
2022-09-01T01:44:07.180Z,99.90
2022-09-01T01:46:36.763Z,99.90
2022-09-01T01:49:06.161Z,99.90
2022-09-01T01:51:34.349Z,99.90
2022-09-01T01:54:04.222Z,99.90
2022-09-01T01:56:32.889Z,99.90
2022-09-01T01:59:01.993Z,99.90
2022-09-01T02:01:32.116Z,99.90
2022-09-01T02:04:01.233Z,99.90
2022-09-01T02:06:30.044Z,99.90
2022-09-01T02:09:00.105Z,99.90
2022-09-01T02:11:28.163Z,99.90
2022-09-01T02:13:58.371Z,99.90
2022-09-01T02:16:32.788Z,99.90
2022-09-01T02:19:03.252Z,99.90
2022-09-01T02:21:30.336Z,99.90
2022-09-01T02:24:01.122Z,99.90
2022-09-01T02:26:38.614Z,99.90
2022-09-01T02:29:10.149Z,99.90
2022-09-01T02:31:41.734Z,99.90
2022-09-01T02:34:10.831Z,99.90
2022-09-01T02:36:44.276Z,99.90
2022-09-01T02:39:15.266Z,99.90
2022-09-01T02:41:42.218Z,99.90
2022-09-01T02:44:11.831Z,99.90
2022-09-01T02:46:43.576Z,99.90
2022-09-01T02:49:24.809Z,99.90
2022-09-01T02:51:57.983Z,99.90
2022-09-01T02:54:25.891Z,99.90
2022-09-01T02:56:56.865Z,99.90
2022-09-01T02:59:28.810Z,99.90
2022-09-01T03:01:58.979Z,99.90
2022-09-01T03:04:27.298Z,99.90
2022-09-01T03:06:54.900Z,99.90
2022-09-01T03:09:22.980Z,99.90
2022-09-01T03:11:52.763Z,99.90
2022-09-01T03:14:21.461Z,99.90
2022-09-01T03:16:48.605Z,99.90
2022-09-01T03:19:16.695Z,99.90
2022-09-01T03:21:45.350Z,99.90
2022-09-01T03:24:17.949Z,99.90
2022-09-01T03:26:49.938Z,99.90
2022-09-01T03:29:18.988Z,99.90
2022-09-01T03:31:46.913Z,99.90
2022-09-01T03:34:16.646Z,99.90
2022-09-01T03:36:52.014Z,99.90
2022-09-01T03:39:26.171Z,99.90
2022-09-01T03:41:53.725Z,99.90
2022-09-01T03:44:29.709Z,99.90
2022-09-01T03:46:59.515Z,99.90
2022-09-01T03:49:28.564Z,99.90
2022-09-01T03:51:58.321Z,99.90
2022-09-01T03:54:30.545Z,99.90
2022-09-01T03:57:00.358Z,99.90
2022-09-01T03:59:31.666Z,99.90
2022-09-01T04:02:02.843Z,99.90
2022-09-01T04:04:33.099Z,99.90
2022-09-01T04:07:00.691Z,99.90
2022-09-01T04:09:28.548Z,99.90
2022-09-01T04:11:55.595Z,99.90
2022-09-01T04:14:27.526Z,99.90
2022-09-01T04:17:15.601Z,99.90
2022-09-01T04:19:43.317Z,99.90
2022-09-01T04:22:14.299Z,99.90
2022-09-01T04:24:49.504Z,99.90
2022-09-01T04:27:18.527Z,99.90
2022-09-01T04:29:46.770Z,99.90
2022-09-01T04:32:14.905Z,99.90
2022-09-01T04:34:45.101Z,99.90
2022-09-01T04:37:22.414Z,99.90
2022-09-01T04:39:58.933Z,99.90
2022-09-01T04:42:29.921Z,99.90
2022-09-01T04:45:02.469Z,99.90
2022-09-01T04:47:42.488Z,99.90
2022-09-01T04:50:17.721Z,99.90
2022-09-01T04:53:06.185Z,99.90
2022-09-01T04:55:43.573Z,99.90
2022-09-01T04:58:13.810Z,99.90
2022-09-01T05:00:43.901Z,99.90
2022-09-01T05:03:11.721Z,99.90
2022-09-01T05:05:54.235Z,99.90
2022-09-01T05:08:24.238Z,99.90
2022-09-01T05:10:55.893Z,99.90
2022-09-01T05:13:45.578Z,99.90
2022-09-01T05:16:24.101Z,99.90
2022-09-01T05:18:55.761Z,99.90
2022-09-01T05:21:28.174Z,99.90
2022-09-01T05:23:58.016Z,99.90
2022-09-01T05:26:28.340Z,99.90
2022-09-01T05:28:58.895Z,99.90
2022-09-01T05:31:35.213Z,99.90
2022-09-01T05:34:03.250Z,99.90
2022-09-01T05:36:34.150Z,99.90
2022-09-01T05:39:04.163Z,99.90
2022-09-01T05:41:31.147Z,99.90
2022-09-01T05:44:00.891Z,99.90
2022-09-01T05:46:30.167Z,99.90
2022-09-01T05:49:03.612Z,99.90
2022-09-01T05:51:44.382Z,99.90
2022-09-01T05:54:22.440Z,99.90
2022-09-01T05:56:50.345Z,99.90
2022-09-01T05:59:24.706Z,99.90
2022-09-01T06:01:54.542Z,99.90
2022-09-01T06:04:24.717Z,99.90
2022-09-01T06:07:05.333Z,99.90
2022-09-01T06:09:42.966Z,99.90
2022-09-01T06:12:18.962Z,99.90
2022-09-01T06:14:48.551Z,99.90
2022-09-01T06:17:24.910Z,99.90
2022-09-01T06:19:55.956Z,99.90
2022-09-01T06:22:25.506Z,99.90
2022-09-01T06:25:01.801Z,99.90
2022-09-01T06:27:38.679Z,99.90
2022-09-01T06:30:14.830Z,99.90
2022-09-01T06:32:49.877Z,99.90
2022-09-01T06:35:18.536Z,99.90
2022-09-01T06:37:47.187Z,99.90
2022-09-01T06:40:26.638Z,99.90
2022-09-01T06:42:54.240Z,99.90
2022-09-01T06:45:26.111Z,99.90
2022-09-01T06:47:59.437Z,99.90
2022-09-01T06:53:37.316Z,99.90
2022-09-01T06:56:11.059Z,99.90
2022-09-01T06:58:47.259Z,99.90
2022-09-01T07:01:19.490Z,99.90
2022-09-01T07:03:51.155Z,99.90
2022-09-01T07:13:05.434Z,99.90
2022-09-01T07:18:22.487Z,99.90
2022-09-01T07:21:36.574Z,99.90
2022-09-01T07:24:08.080Z,99.90
2022-09-01T07:26:29.292Z,99.90
2022-09-01T07:29:06.156Z,99.90
2022-09-01T07:31:52.085Z,99.90
2022-09-01T07:34:39.375Z,99.90
2022-09-01T07:38:47.460Z,99.90
2022-09-01T07:39:56.651Z,99.90
2022-09-01T07:42:58.961Z,99.90
2022-09-01T07:43:12.933Z,99.90
2022-09-01T07:49:03.294Z,99.90
2022-09-01T07:51:51.382Z,99.90
2022-09-01T07:54:25.151Z,99.90
2022-09-01T07:56:55.499Z,99.90
2022-09-01T07:59:23.513Z,99.90
2022-09-01T08:01:57.341Z,99.90
2022-09-01T08:04:24.883Z,99.90
2022-09-01T08:06:55.181Z,99.90
2022-09-01T08:09:37.845Z,99.90
2022-09-01T08:12:10.426Z,99.90
2022-09-01T08:14:40.227Z,99.90
2022-09-01T08:20:03.206Z,98.30
2022-09-01T08:23:06.335Z,98.20
2022-09-01T08:25:36.389Z,97.90
2022-09-01T08:28:04.779Z,98.00
2022-09-01T08:30:33.461Z,97.80
2022-09-01T08:33:11.206Z,97.90
2022-09-01T08:35:44.246Z,97.10
2022-09-01T08:38:12.075Z,96.60
2022-09-01T08:40:41.255Z,95.30
2022-09-01T08:43:32.307Z,96.20
2022-09-01T08:46:12.663Z,96.80
2022-09-01T08:52:20.272Z,94.60
2022-09-01T08:55:04.513Z,94.60
2022-09-01T08:57:36.849Z,95.10
2022-09-01T09:00:23.311Z,94.70
2022-09-01T09:03:03.199Z,94.50
2022-09-01T09:06:07.934Z,92.90
2022-09-01T09:08:54.909Z,92.50
2022-09-01T09:12:01.808Z,93.00
2022-09-01T09:14:36.585Z,93.60
2022-09-01T09:17:04.403Z,93.80
2022-09-01T09:19:33.861Z,93.10
2022-09-01T09:22:05.067Z,91.30
2022-09-01T09:24:56.318Z,90.30
2022-09-01T09:27:25.271Z,90.90
2022-09-01T09:30:11.339Z,91.20
2022-09-01T09:33:19.940Z,91.00
2022-09-01T09:35:33.280Z,90.40
2022-09-01T09:38:44.865Z,88.90
2022-09-01T09:41:27.137Z,88.80
2022-09-01T09:43:58.404Z,90.30
2022-09-01T09:46:31.999Z,90.30
2022-09-01T09:49:34.816Z,90.30
2022-09-01T09:52:10.879Z,90.40
2022-09-01T09:55:19.865Z,90.70
2022-09-01T09:57:48.198Z,88.60
2022-09-01T10:00:31.066Z,90.10
2022-09-01T10:03:08.705Z,88.30
2022-09-01T10:05:48.659Z,88.50
2022-09-01T10:08:45.637Z,88.70
2022-09-01T10:11:51.644Z,86.50
2022-09-01T10:14:51.645Z,86.90
2022-09-01T10:17:20.601Z,87.20
2022-09-01T10:19:58.291Z,86.20
2022-09-01T10:22:28.950Z,83.70
2022-09-01T10:24:55.771Z,85.70
2022-09-01T10:27:27.284Z,85.70
2022-09-01T10:30:18.174Z,87.30
2022-09-01T10:33:06.850Z,83.80
2022-09-01T10:35:44.426Z,85.20
2022-09-01T10:38:16.542Z,83.00
2022-09-01T10:41:08.833Z,85.90
2022-09-01T10:43:49.446Z,85.80
2022-09-01T10:46:38.532Z,84.90
2022-09-01T10:49:33.677Z,83.30
2022-09-01T10:52:07.578Z,83.50
2022-09-01T10:54:58.268Z,82.50
2022-09-01T10:57:42.855Z,82.60
2022-09-01T11:00:41.436Z,79.80
2022-09-01T11:06:12.888Z,81.50
2022-09-01T11:08:56.270Z,78.30
2022-09-01T11:11:44.230Z,81.50
2022-09-01T11:14:23.594Z,79.50
2022-09-01T11:17:12.576Z,81.70
2022-09-01T11:19:45.090Z,81.40
2022-09-01T11:22:21.154Z,80.50
2022-09-01T11:24:57.906Z,81.00
2022-09-01T11:27:48.973Z,81.30
2022-09-01T11:30:22.400Z,81.30
2022-09-01T11:33:03.806Z,82.10
2022-09-01T11:35:34.124Z,83.80
2022-09-01T11:38:05.718Z,80.80
2022-09-01T11:40:35.533Z,79.00
2022-09-01T11:43:12.593Z,76.80
2022-09-01T11:46:20.783Z,77.60
2022-09-01T11:48:54.914Z,79.30
2022-09-01T11:51:21.687Z,74.30
2022-09-01T11:54:01.068Z,72.90
2022-09-01T11:56:28.757Z,73.40
2022-09-01T11:58:55.577Z,68.10
2022-09-01T12:01:40.944Z,72.30
2022-09-01T12:04:25.745Z,71.10
2022-09-01T12:06:57.080Z,69.40
2022-09-01T12:09:45.717Z,68.50
2022-09-01T12:12:33.519Z,70.40
2022-09-01T12:15:06.490Z,67.90
2022-09-01T12:17:35.265Z,69.90
2022-09-01T12:20:25.517Z,65.80
2022-09-01T12:22:58.014Z,65.80
2022-09-01T12:25:30.618Z,62.60
2022-09-01T12:27:59.419Z,62.40
2022-09-01T12:30:27.131Z,63.40
2022-09-01T12:35:47.547Z,61.90
2022-09-01T12:38:21.011Z,54.60
2022-09-01T12:40:54.221Z,56.40
2022-09-01T12:43:30.134Z,59.00
2022-09-01T12:45:59.964Z,58.10
2022-09-01T12:48:36.755Z,60.00
2022-09-01T12:51:26.570Z,61.20
2022-09-01T12:53:58.615Z,57.90
2022-09-01T12:56:33.465Z,52.80
2022-09-01T12:59:25.098Z,52.90
2022-09-01T13:02:36.762Z,52.50
2022-09-01T13:05:18.803Z,51.30
2022-09-01T13:07:45.963Z,51.10
2022-09-01T13:10:12.926Z,51.50
2022-09-01T13:12:44.606Z,52.30
2022-09-01T13:15:15.702Z,51.30
2022-09-01T13:17:43.722Z,54.00
2022-09-01T13:20:13.629Z,54.70
2022-09-01T13:22:44.747Z,57.90
2022-09-01T13:25:18.645Z,54.90
2022-09-01T13:27:50.021Z,52.50
2022-09-01T13:30:28.416Z,50.50
2022-09-01T13:35:43.361Z,51.40
2022-09-01T13:38:10.701Z,49.20
2022-09-01T13:40:37.592Z,51.20
2022-09-01T13:43:06.204Z,54.40
2022-09-01T13:45:33.716Z,54.00
2022-09-01T13:48:17.262Z,56.30
2022-09-01T13:53:33.898Z,51.60
2022-09-01T13:56:01.772Z,54.00
2022-09-01T13:58:28.631Z,50.80
2022-09-01T14:00:59.844Z,49.50
2022-09-01T14:03:27.572Z,47.10
2022-09-01T14:05:55.080Z,47.80
2022-09-01T14:08:24.906Z,45.90
2022-09-01T14:10:53.748Z,47.60
2022-09-01T14:13:23.521Z,49.40
2022-09-01T14:15:52.035Z,49.00
2022-09-01T14:18:22.376Z,47.20
2022-09-01T14:20:51.612Z,47.80
2022-09-01T14:23:19.533Z,46.30
2022-09-01T14:25:49.955Z,46.40
2022-09-01T14:28:20.139Z,45.80
2022-09-01T14:30:47.889Z,43.10
2022-09-01T14:33:15.167Z,45.20
2022-09-01T14:35:46.566Z,43.20
2022-09-01T14:38:14.774Z,41.90
2022-09-01T14:40:43.815Z,42.90
2022-09-01T14:43:14.304Z,41.40
2022-09-01T14:45:47.049Z,42.50
2022-09-01T14:48:18.495Z,43.70
2022-09-01T14:50:48.768Z,43.30
2022-09-01T14:53:15.773Z,40.70
2022-09-01T14:55:44.110Z,41.90
2022-09-01T14:58:14.137Z,43.10
2022-09-01T15:00:42.194Z,42.70
2022-09-01T15:03:10.431Z,43.50
2022-09-01T15:05:40.197Z,42.60
2022-09-01T15:08:13.017Z,42.30
2022-09-01T15:10:43.055Z,41.10
2022-09-01T15:13:13.851Z,41.80
2022-09-01T15:15:41.605Z,41.50
2022-09-01T15:18:11.645Z,41.60
2022-09-01T15:20:45.806Z,42.70
2022-09-01T15:23:13.965Z,42.50
2022-09-01T15:25:41.240Z,43.30
2022-09-01T15:28:08.878Z,42.60
2022-09-01T15:30:36.971Z,41.40
2022-09-01T15:33:04.778Z,41.70
2022-09-01T15:35:32.613Z,41.90
2022-09-01T15:37:59.987Z,42.10
2022-09-01T15:40:28.018Z,42.40
2022-09-01T15:42:56.784Z,43.00
2022-09-01T15:45:24.865Z,42.20
2022-09-01T15:47:51.877Z,43.90
2022-09-01T15:50:27.495Z,46.60
2022-09-01T15:52:59.736Z,50.10
2022-09-01T15:55:30.091Z,49.30
2022-09-01T15:57:58.435Z,50.00
2022-09-01T16:00:27.003Z,51.10
2022-09-01T16:02:57.717Z,53.00
2022-09-01T16:05:25.914Z,53.50
2022-09-01T16:07:53.582Z,54.60
2022-09-01T16:10:21.623Z,55.10
2022-09-01T16:12:49.846Z,57.00
2022-09-01T16:15:20.195Z,56.60
2022-09-01T16:18:05.234Z,57.10
2022-09-01T16:20:51.091Z,56.30
2022-09-01T16:23:21.366Z,59.70
2022-09-01T16:25:48.324Z,59.70
2022-09-01T16:28:29.077Z,58.50
2022-09-01T16:31:12.549Z,60.60
2022-09-01T16:33:49.794Z,59.70
2022-09-01T16:36:35.452Z,59.30
2022-09-01T16:39:39.439Z,59.80
2022-09-01T16:42:21.133Z,60.10
2022-09-01T16:45:10.848Z,59.30
2022-09-01T16:47:46.939Z,60.90
2022-09-01T16:51:01.344Z,60.80
2022-09-01T16:53:37.535Z,60.50
2022-09-01T16:56:14.849Z,60.40
2022-09-01T16:59:16.348Z,61.20
2022-09-01T17:02:11.034Z,64.20
2022-09-01T17:04:48.856Z,63.70
2022-09-01T17:07:30.641Z,64.70
2022-09-01T17:10:03.770Z,66.50
2022-09-01T17:12:37.542Z,66.80
2022-09-01T17:15:12.860Z,67.30
2022-09-01T17:18:21.943Z,67.30
2022-09-01T17:20:58.038Z,69.40
2022-09-01T17:23:29.844Z,69.50
2022-09-01T17:26:03.029Z,69.10
2022-09-01T17:28:35.322Z,70.80
2022-09-01T17:31:50.285Z,71.10
2022-09-01T17:34:38.764Z,73.40
2022-09-01T17:37:29.157Z,76.70
2022-09-01T17:39:59.656Z,80.10
2022-09-01T17:42:45.068Z,86.80
2022-09-01T17:45:17.560Z,90.10
2022-09-01T17:48:11.658Z,91.90
2022-09-01T17:50:50.513Z,94.60
2022-09-01T17:53:44.565Z,95.50
2022-09-01T17:56:33.008Z,96.40
2022-09-01T17:59:11.705Z,97.10
2022-09-01T18:01:47.493Z,98.40
2022-09-01T18:04:31.351Z,98.10
2022-09-01T18:07:19.783Z,99.30
2022-09-01T18:09:54.310Z,99.90
2022-09-01T18:12:29.143Z,99.90
2022-09-01T18:15:10.661Z,99.90
2022-09-01T18:17:52.410Z,99.90
2022-09-01T18:20:43.906Z,99.90
2022-09-01T18:23:13.710Z,99.90
2022-09-01T18:25:47.899Z,99.90
2022-09-01T18:28:18.100Z,99.90
2022-09-01T18:30:56.757Z,99.90
2022-09-01T18:33:40.808Z,99.90
2022-09-01T18:36:56.132Z,99.90
2022-09-01T18:39:35.522Z,99.90
2022-09-01T18:42:13.708Z,99.90
2022-09-01T18:45:17.899Z,99.90
2022-09-01T18:48:09.002Z,99.90
2022-09-01T18:50:58.793Z,99.90
2022-09-01T18:53:31.352Z,99.90
2022-09-01T18:56:16.346Z,99.90
2022-09-01T18:58:57.200Z,99.90
2022-09-01T19:01:38.821Z,99.90
2022-09-01T19:04:36.700Z,99.90
2022-09-01T19:07:21.746Z,99.90
2022-09-01T19:10:02.496Z,99.90
2022-09-01T19:12:44.035Z,99.90
2022-09-01T19:15:39.935Z,99.90
2022-09-01T19:18:28.903Z,99.90
2022-09-01T19:21:08.063Z,99.90
2022-09-01T19:23:44.610Z,99.90
2022-09-01T19:26:21.304Z,99.90
2022-09-01T19:29:06.115Z,99.90
2022-09-01T19:31:37.114Z,99.90
2022-09-01T19:34:11.945Z,99.90
2022-09-01T19:36:53.587Z,99.90
2022-09-01T19:39:27.397Z,99.90
2022-09-01T19:42:21.498Z,99.90
2022-09-01T19:45:06.886Z,99.90
2022-09-01T19:47:49.895Z,99.90
2022-09-01T19:50:23.961Z,99.90
2022-09-01T19:53:33.884Z,99.90
2022-09-01T19:56:13.310Z,99.90
2022-09-01T19:59:14.171Z,99.90
2022-09-01T20:02:15.831Z,99.90
2022-09-01T20:04:55.689Z,99.90
2022-09-01T20:07:57.862Z,99.90
2022-09-01T20:10:25.519Z,99.90
2022-09-01T20:13:16.199Z,99.90
2022-09-01T20:15:53.807Z,99.90
2022-09-01T20:18:41.546Z,99.90
2022-09-01T20:21:20.948Z,99.90
2022-09-01T20:23:59.341Z,99.90
2022-09-01T20:26:42.159Z,99.90
2022-09-01T20:29:29.785Z,99.90
2022-09-01T20:31:58.812Z,99.90
2022-09-01T20:34:46.165Z,99.90
2022-09-01T20:37:23.895Z,99.90
2022-09-01T20:40:04.338Z,99.90
2022-09-01T20:43:03.295Z,99.90
2022-09-01T20:45:31.929Z,99.90
2022-09-01T20:48:14.690Z,99.90
2022-09-01T20:50:54.409Z,99.90
2022-09-01T20:53:54.693Z,99.90
2022-09-01T20:56:24.654Z,99.90
2022-09-01T20:59:08.723Z,99.90
2022-09-01T21:01:55.906Z,99.90
2022-09-01T21:04:53.309Z,99.90
2022-09-01T21:07:31.402Z,99.90
2022-09-01T21:10:21.152Z,99.90
2022-09-01T21:13:03.238Z,99.90
2022-09-01T21:15:59.659Z,99.90
2022-09-01T21:18:43.684Z,99.90
2022-09-01T21:21:32.743Z,99.90
2022-09-01T21:23:59.560Z,99.90
2022-09-01T21:26:26.520Z,99.90
2022-09-01T21:28:57.702Z,99.90
2022-09-01T21:31:24.887Z,99.90
2022-09-01T21:33:51.970Z,99.90
2022-09-01T21:36:19.353Z,99.90
2022-09-01T21:38:46.364Z,99.90
2022-09-01T21:41:14.176Z,99.90
2022-09-01T21:43:44.823Z,99.90
2022-09-01T21:46:14.673Z,99.90
2022-09-01T21:48:41.937Z,99.90
2022-09-01T21:51:09.017Z,99.90
2022-09-01T21:53:36.247Z,99.90
2022-09-01T21:56:03.626Z,99.90
2022-09-01T21:58:30.527Z,99.90
2022-09-01T22:00:58.348Z,99.90
2022-09-01T22:03:25.448Z,99.90
2022-09-01T22:05:52.768Z,99.90
2022-09-01T22:08:19.798Z,99.90
2022-09-01T22:10:49.495Z,99.90
2022-09-01T22:13:16.902Z,99.90
2022-09-01T22:15:46.538Z,99.90
2022-09-01T22:18:15.129Z,99.90
2022-09-01T22:20:42.864Z,99.90
2022-09-01T22:23:15.779Z,99.90
2022-09-01T22:25:45.972Z,99.90
2022-09-01T22:28:13.620Z,99.90
2022-09-01T22:30:45.941Z,99.90
2022-09-01T22:33:13.339Z,99.90
2022-09-01T22:35:46.880Z,99.90
2022-09-01T22:38:14.109Z,99.90
2022-09-01T22:40:56.194Z,99.90
2022-09-01T22:43:24.747Z,99.90
2022-09-01T22:45:57.384Z,99.90
2022-09-01T22:48:27.095Z,99.90
2022-09-01T22:50:57.403Z,99.90
2022-09-01T22:53:26.169Z,99.90
2022-09-01T22:55:53.821Z,99.90
2022-09-01T22:58:21.092Z,99.90
2022-09-01T23:00:51.664Z,99.90
2022-09-01T23:03:21.174Z,99.90
2022-09-01T23:05:49.412Z,99.90
2022-09-01T23:08:17.036Z,99.90
2022-09-01T23:10:46.887Z,99.90
2022-09-01T23:13:13.740Z,99.90
2022-09-01T23:15:41.439Z,99.90
2022-09-01T23:18:08.692Z,99.90
2022-09-01T23:20:38.113Z,99.90
2022-09-01T23:23:05.896Z,99.90
2022-09-01T23:25:32.886Z,99.90
2022-09-01T23:28:03.636Z,99.90
2022-09-01T23:30:30.500Z,99.90
2022-09-01T23:32:57.986Z,99.90
2022-09-01T23:35:25.475Z,99.90
2022-09-01T23:37:52.377Z,99.90
2022-09-01T23:40:20.289Z,99.90
2022-09-01T23:42:47.217Z,99.90
2022-09-01T23:45:17.334Z,99.90
2022-09-01T23:47:47.120Z,99.90
2022-09-01T23:50:14.143Z,99.90
2022-09-01T23:52:41.357Z,99.90
2022-09-01T23:55:11.550Z,99.90
2022-09-01T23:57:39.087Z,99.90
